Time;durP1;ratioP1;P1;durP2;ratioP2;P2;SDS_P1;SDS_P2;PMS_P1;PMS_P2;Temp;Humidity;BMP_temperature;BMP_pressure;BME280_temperature;BME280_humidity;BME280_pressure;Samples;Min_cycle;Max_cycle;Signal;HPM_P1;HPM_P2
2024/03/12 00:00:23;;;;;;;25.60;15.95;;;7.80;99.90;;;;;;5003115;28;20052;-65
2024/03/12 00:02:50;;;;;;;27.23;16.70;;;7.90;99.90;;;;;;5002183;28;20137;-65
2024/03/12 00:05:19;;;;;;;26.20;16.77;;;7.90;99.90;;;;;;5002615;28;20456;-65
2024/03/12 00:07:49;;;;;;;25.73;15.83;;;7.90;99.90;;;;;;5003398;28;20518;-65
2024/03/12 00:10:19;;;;;;;;;;;7.90;99.90;;;;;;5002823;28;20038;-65
2024/03/12 00:12:49;;;;;;;27.83;15.30;;;7.80;99.90;;;;;;5003383;28;20329;-65
2024/03/12 00:15:21;;;;;;;28.38;15.68;;;7.90;99.90;;;;;;4980392;28;20046;-65
2024/03/12 00:17:49;;;;;;;26.58;14.80;;;7.80;99.90;;;;;;4980481;28;20512;-65
2024/03/12 00:20:24;;;;;;;24.95;16.55;;;7.80;99.90;;;;;;4979387;28;20411;-65
2024/03/12 00:22:50;;;;;;;27.50;16.10;;;7.90;99.90;;;;;;4995473;28;20038;-65
2024/03/12 00:25:19;;;;;;;29.27;17.13;;;7.90;99.90;;;;;;4964652;28;20053;-65
2024/03/12 00:27:46;;;;;;;26.70;15.20;;;7.90;99.90;;;;;;4992315;28;20579;-65
2024/03/12 00:30:14;;;;;;;28.33;16.23;;;7.90;99.90;;;;;;4985493;28;20046;-65
2024/03/12 00:32:43;;;;;;;24.20;15.43;;;7.90;99.90;;;;;;4984007;28;20046;-65
2024/03/12 00:35:12;;;;;;;27.20;16.03;;;7.80;99.90;;;;;;4987002;28;20060;-65
2024/03/12 00:37:38;;;;;;;26.75;16.05;;;7.90;99.90;;;;;;4998374;28;20056;-64
2024/03/12 00:40:11;;;;;;;25.42;15.70;;;7.90;99.90;;;;;;4992617;28;20077;-65
2024/03/12 00:42:47;;;;;;;27.52;16.35;;;7.80;99.90;;;;;;4986369;28;20126;-65
2024/03/12 00:45:13;;;;;;;27.13;16.80;;;7.90;99.90;;;;;;4995568;28;20045;-65
2024/03/12 00:47:42;;;;;;;26.17;16.67;;;7.80;99.90;;;;;;4995907;28;20061;-65
2024/03/12 00:50:09;;;;;;;28.15;17.25;;;7.90;99.90;;;;;;4997245;28;20046;-65
2024/03/12 00:52:38;;;;;;;28.80;16.27;;;7.80;99.90;;;;;;4986405;28;20049;-65
2024/03/12 00:55:05;;;;;;;26.58;16.23;;;7.80;99.90;;;;;;4999355;28;20038;-65
2024/03/12 00:57:34;;;;;;;24.00;16.23;;;7.80;99.90;;;;;;4980201;28;20499;-65
2024/03/12 01:00:01;;;;;;;25.17;16.23;;;7.80;99.90;;;;;;4997089;28;20052;-65
2024/03/12 01:02:30;;;;;;;28.10;16.15;;;7.80;99.90;;;;;;4977321;28;20046;-64
2024/03/12 01:04:57;;;;;;;27.35;16.17;;;7.80;99.90;;;;;;4983140;28;20053;-65
2024/03/12 01:07:23;;;;;;;27.98;16.50;;;7.70;99.90;;;;;;4995283;28;20054;-65
2024/03/12 01:09:48;;;;;;;26.60;16.40;;;7.70;99.90;;;;;;4987812;28;20120;-65
2024/03/12 01:12:15;;;;;;;25.42;15.95;;;7.80;99.90;;;;;;4978970;28;20437;-65
2024/03/12 01:14:42;;;;;;;28.27;16.15;;;7.70;99.90;;;;;;4992007;28;20101;-65
2024/03/12 01:17:07;;;;;;;27.38;17.00;;;7.70;99.90;;;;;;4991559;28;20054;-65
2024/03/12 01:19:35;;;;;;;26.20;16.50;;;7.80;99.90;;;;;;4998749;28;20166;-65
2024/03/12 01:22:04;;;;;;;27.50;16.85;;;7.70;99.90;;;;;;4999446;28;20089;-65
2024/03/12 01:24:31;;;;;;;24.23;15.32;;;7.70;99.90;;;;;;4987706;28;20049;-65
2024/03/12 01:26:57;;;;;;;29.13;16.92;;;7.70;99.90;;;;;;4991433;28;20518;-65
2024/03/12 01:29:22;;;;;;;36.35;16.92;;;7.80;99.90;;;;;;5001359;28;20053;-65
2024/03/12 01:31:52;;;;;;;30.00;16.88;;;7.70;99.90;;;;;;4965977;28;20041;-65
2024/03/12 01:34:22;;;;;;;32.55;16.35;;;7.70;99.90;;;;;;4986404;28;20046;-65
2024/03/12 01:36:49;;;;;;;26.23;15.98;;;7.70;99.90;;;;;;4982972;28;20120;-65
2024/03/12 01:39:16;;;;;;;27.67;16.10;;;7.60;99.90;;;;;;4993625;28;20112;-65
2024/03/12 01:41:44;;;;;;;27.20;16.83;;;7.70;99.90;;;;;;4987624;28;20313;-65
2024/03/12 01:44:11;;;;;;;26.77;16.30;;;7.70;99.90;;;;;;4983789;28;20065;-65
2024/03/12 01:46:38;;;;;;;33.38;17.05;;;7.70;99.90;;;;;;4989086;28;20042;-65
2024/03/12 01:49:10;;;;;;;26.60;17.10;;;7.70;99.90;;;;;;4992417;28;20504;-65
2024/03/12 01:51:37;;;;;;;27.88;16.83;;;7.60;99.90;;;;;;4984384;28;20069;-65
2024/03/12 01:54:05;;;;;;;25.80;15.40;;;7.60;99.90;;;;;;4965690;28;20046;-65
2024/03/12 01:56:32;;;;;;;28.38;16.60;;;7.70;99.90;;;;;;4997327;28;20042;-65
2024/03/12 01:58:58;;;;;;;27.88;16.55;;;7.70;99.90;;;;;;4988507;28;20078;-65
2024/03/12 02:01:25;;;;;;;25.50;15.40;;;7.70;99.90;;;;;;4982282;28;20634;-64
2024/03/12 02:03:54;;;;;;;30.42;16.75;;;7.60;99.90;;;;;;4980683;28;20057;-65
2024/03/12 02:06:21;;;;;;;25.95;16.17;;;7.70;99.90;;;;;;4981481;28;20078;-65
2024/03/12 02:08:49;;;;;;;29.85;17.58;;;7.60;99.90;;;;;;4978631;28;20100;-65
2024/03/12 02:11:15;;;;;;;30.25;15.52;;;7.60;99.90;;;;;;4994818;28;20069;-65
2024/03/12 02:13:41;;;;;;;24.38;15.50;;;7.60;99.90;;;;;;4996927;28;20240;-65
2024/03/12 02:16:08;;;;;;;27.45;16.17;;;7.60;99.90;;;;;;4983225;28;20125;-65
2024/03/12 02:18:34;;;;;;;27.50;16.65;;;7.60;99.90;;;;;;4980388;28;20057;-65
2024/03/12 02:21:00;;;;;;;27.90;17.20;;;7.60;99.90;;;;;;4988677;28;20052;-65
2024/03/12 02:23:37;;;;;;;27.73;16.70;;;7.60;99.90;;;;;;4975874;28;20423;-65
2024/03/12 02:26:06;;;;;;;28.25;17.27;;;7.60;99.90;;;;;;4990064;28;20042;-65
2024/03/12 02:28:33;;;;;;;31.98;17.08;;;7.60;99.90;;;;;;4995380;28;20089;-64
2024/03/12 02:30:59;;;;;;;27.70;16.83;;;7.50;99.90;;;;;;4990232;28;20343;-65
2024/03/12 02:33:25;;;;;;;27.83;15.90;;;7.50;99.90;;;;;;4993947;28;20053;-65
2024/03/12 02:35:51;;;;;;;23.75;14.52;;;7.50;99.90;;;;;;4992882;28;20042;-65
2024/03/12 02:38:18;;;;;;;28.33;16.52;;;7.50;99.90;;;;;;4996717;28;20046;-65
2024/03/12 02:40:45;;;;;;;27.58;16.25;;;7.50;99.90;;;;;;4983190;28;20454;-64
2024/03/12 02:43:13;;;;;;;25.08;16.13;;;7.50;99.90;;;;;;4996569;28;20058;-65
2024/03/12 02:45:40;;;;;;;27.45;16.05;;;7.50;99.90;;;;;;4992778;28;20195;-65
2024/03/12 02:48:08;;;;;;;30.17;16.67;;;7.50;99.90;;;;;;5000370;28;20057;-65
2024/03/12 02:50:34;;;;;;;28.40;16.98;;;7.50;99.90;;;;;;4996963;28;20731;-65
2024/03/12 02:53:00;;;;;;;25.13;15.70;;;7.40;99.90;;;;;;4992391;28;20124;-65
2024/03/12 02:55:27;;;;;;;31.58;16.33;;;7.40;99.90;;;;;;4999209;28;20053;-65
2024/03/12 02:57:53;;;;;;;28.45;16.10;;;7.40;99.90;;;;;;4996625;28;20053;-65
2024/03/12 03:00:19;;;;;;;31.45;17.60;;;7.40;99.90;;;;;;5000555;28;20042;-65
2024/03/12 03:02:45;;;;;;;28.55;17.17;;;7.40;99.90;;;;;;4999527;28;20111;-65
2024/03/12 03:05:12;;;;;;;28.75;16.38;;;7.40;99.90;;;;;;4985661;28;20507;-65
2024/03/12 03:07:42;;;;;;;30.02;16.98;;;7.40;99.90;;;;;;4992947;28;20800;-65
2024/03/12 03:10:08;;;;;;;29.33;16.85;;;7.30;99.90;;;;;;4977092;28;20049;-65
2024/03/12 03:12:34;;;;;;;30.15;17.67;;;7.40;99.90;;;;;;4987455;28;20045;-65
2024/03/12 03:15:00;;;;;;;29.38;17.10;;;7.30;99.90;;;;;;4992085;28;20866;-65
2024/03/12 03:17:26;;;;;;;34.42;18.48;;;7.30;99.90;;;;;;4998163;28;20052;-65
2024/03/12 03:19:52;;;;;;;32.58;17.40;;;7.30;99.90;;;;;;4985574;28;20072;-65
2024/03/12 03:22:18;;;;;;;29.85;17.13;;;7.30;99.90;;;;;;4993610;28;20053;-65
2024/03/12 03:24:44;;;;;;;30.52;18.42;;;7.30;99.90;;;;;;4988243;28;20042;-65
2024/03/12 03:27:10;;;;;;;30.85;18.58;;;7.20;99.90;;;;;;4984871;28;20046;-65
2024/03/12 03:29:36;;;;;;;29.85;17.55;;;7.20;99.90;;;;;;4967074;28;20058;-65
2024/03/12 03:32:06;;;;;;;31.63;17.95;;;7.20;99.90;;;;;;4989930;28;20457;-65
2024/03/12 03:34:32;;;;;;;31.65;18.15;;;7.20;99.90;;;;;;5002857;28;20492;-65
2024/03/12 03:36:59;;;;;;;30.67;18.05;;;7.20;99.90;;;;;;4979384;28;20621;-65
2024/03/12 03:39:26;;;;;;;30.02;18.15;;;7.10;99.90;;;;;;4994727;28;20141;-65
2024/03/12 03:41:52;;;;;;;31.27;18.38;;;7.20;99.90;;;;;;4989558;28;20124;-65
2024/03/12 03:44:18;;;;;;;33.15;19.20;;;7.10;99.90;;;;;;4995966;28;20233;-65
2024/03/12 03:46:45;;;;;;;30.05;17.48;;;7.10;99.90;;;;;;4990247;28;20109;-65
2024/03/12 03:49:10;;;;;;;29.83;18.08;;;7.10;99.90;;;;;;4992287;28;20098;-65
2024/03/12 03:51:36;;;;;;;29.73;18.13;;;7.10;99.90;;;;;;4983555;28;20493;-65
2024/03/12 03:54:02;;;;;;;32.80;17.88;;;7.10;99.90;;;;;;4983771;28;20064;-65
2024/03/12 03:56:31;;;;;;;32.28;17.90;;;7.00;99.90;;;;;;4996154;28;20046;-65
2024/03/12 03:58:59;;;;;;;29.90;17.98;;;7.10;99.90;;;;;;4990365;28;20137;-65
2024/03/12 04:01:27;;;;;;;27.40;16.75;;;7.10;99.90;;;;;;4984214;28;20050;-65
2024/03/12 04:03:55;;;;;;;29.73;17.35;;;7.10;99.90;;;;;;4981914;28;20120;-65
2024/03/12 04:06:22;;;;;;;28.33;16.95;;;7.20;99.90;;;;;;4985398;28;20136;-65
2024/03/12 04:08:53;;;;;;;34.22;19.48;;;7.20;99.90;;;;;;4996057;28;20050;-65
2024/03/12 04:11:22;;;;;;;32.05;17.63;;;7.20;99.90;;;;;;4999337;28;20081;-65
2024/03/12 04:13:54;;;;;;;30.23;17.80;;;7.20;99.90;;;;;;4991116;28;20078;-65
2024/03/12 04:16:20;;;;;;;32.15;17.27;;;7.20;99.90;;;;;;4986036;28;20045;-65
2024/03/12 04:18:46;;;;;;;27.65;16.25;;;7.20;99.90;;;;;;5001902;28;20433;-65
2024/03/12 04:21:13;;;;;;;29.42;17.25;;;7.20;99.90;;;;;;4997185;28;20077;-65
2024/03/12 04:23:42;;;;;;;30.67;17.77;;;7.20;99.90;;;;;;5002344;28;20121;-65
2024/03/12 04:26:08;;;;;;;25.75;16.52;;;7.20;99.90;;;;;;4987459;28;20046;-65
2024/03/12 04:28:37;;;;;;;30.70;17.20;;;7.20;99.90;;;;;;4984082;28;20052;-65
2024/03/12 04:31:10;;;;;;;28.60;17.27;;;7.30;99.90;;;;;;4973616;28;20049;-65
2024/03/12 04:33:36;;;;;;;27.95;16.35;;;7.20;99.90;;;;;;4993676;28;20128;-65
2024/03/12 04:36:03;;;;;;;31.05;17.88;;;7.20;99.90;;;;;;4989509;28;20304;-64
2024/03/12 04:38:32;;;;;;;26.60;16.17;;;7.20;99.90;;;;;;4995186;28;20041;-65
2024/03/12 04:40:59;;;;;;;29.70;18.80;;;7.20;99.90;;;;;;4998484;28;20394;-65
2024/03/12 04:43:25;;;;;;;30.40;16.85;;;7.20;99.90;;;;;;4969061;28;20057;-65
2024/03/12 04:45:51;;;;;;;32.05;18.27;;;7.20;99.90;;;;;;4991091;28;20408;-65
2024/03/12 04:48:17;;;;;;;32.15;18.33;;;7.20;99.90;;;;;;4996427;28;20499;-65
2024/03/12 04:50:43;;;;;;;31.45;18.23;;;7.20;99.90;;;;;;4991998;28;20042;-65
2024/03/12 04:53:09;;;;;;;32.80;18.13;;;7.20;99.90;;;;;;5002517;28;20045;-65
2024/03/12 04:55:36;;;;;;;34.17;18.05;;;7.20;99.90;;;;;;4984408;28;20038;-65
2024/03/12 04:58:04;;;;;;;35.17;18.27;;;7.10;99.90;;;;;;4984278;28;20507;-65
2024/03/12 05:00:30;;;;;;;32.53;17.67;;;7.20;99.90;;;;;;5002245;28;20042;-65
2024/03/12 05:02:56;;;;;;;36.55;18.88;;;7.20;99.90;;;;;;4979644;28;20050;-65
2024/03/12 05:05:23;;;;;;;30.10;18.23;;;7.20;99.90;;;;;;5002103;28;20444;-65
2024/03/12 05:07:50;;;;;;;33.85;18.48;;;7.20;99.90;;;;;;5001223;28;20464;-65
2024/03/12 05:10:22;;;;;;;33.80;18.50;;;7.20;99.90;;;;;;5002698;28;20089;-65
2024/03/12 05:12:51;;;;;;;30.63;17.80;;;7.30;99.90;;;;;;4992733;28;20470;-65
2024/03/12 05:15:21;;;;;;;31.73;18.10;;;7.30;99.90;;;;;;4999260;28;20050;-65
2024/03/12 05:17:48;;;;;;;37.08;18.15;;;7.20;99.90;;;;;;4981488;28;20086;-65
2024/03/12 05:20:17;;;;;;;36.35;18.40;;;7.20;99.90;;;;;;4991912;28;20049;-65
2024/03/12 05:22:47;;;;;;;32.57;18.57;;;7.20;99.90;;;;;;4983055;28;20455;-65
2024/03/12 05:25:38;;;;;;;36.47;19.90;;;7.30;99.90;;;;;;4996193;28;20041;-65
2024/03/12 05:28:07;;;;;;;32.85;18.88;;;7.30;99.90;;;;;;4987619;28;20100;-65
2024/03/12 05:30:35;;;;;;;40.28;19.95;;;7.20;99.90;;;;;;4984091;28;20577;-65
2024/03/12 05:33:04;;;;;;;41.42;19.80;;;7.20;99.90;;;;;;4985676;28;20072;-65
2024/03/12 05:35:31;;;;;;;51.15;20.83;;;7.30;99.90;;;;;;4981874;28;20064;-65
2024/03/12 05:38:03;;;;;;;42.30;21.23;;;7.30;99.90;;;;;;4992744;28;20053;-65
2024/03/12 05:48:55;;;;;;;61.33;24.30;;;7.40;99.90;;;;;;4996589;28;20042;-65
2024/03/12 05:51:20;;;;;;;63.92;24.98;;;7.40;99.90;;;;;;4984033;28;20049;-65
2024/03/12 05:53:47;;;;;;;68.15;24.60;;;7.40;99.90;;;;;;4996265;28;20397;-65
2024/03/12 05:56:13;;;;;;;52.53;24.48;;;7.40;99.90;;;;;;4989864;28;20520;-65
2024/03/12 05:58:39;;;;;;;60.70;25.20;;;7.40;99.90;;;;;;4997283;28;20049;-65
2024/03/12 06:01:05;;;;;;;57.47;25.83;;;7.40;99.90;;;;;;4992000;28;20085;-65
2024/03/12 06:03:37;;;;;;;59.90;25.25;;;7.50;99.90;;;;;;4980656;28;20042;-65
2024/03/12 06:06:07;;;;;;;41.55;20.63;;;7.50;99.90;;;;;;4994626;28;20582;-65
2024/03/12 06:08:33;;;;;;;57.63;24.92;;;7.50;99.90;;;;;;4995369;28;20141;-65
2024/03/12 06:10:59;;;;;;;60.63;24.23;;;7.50;99.90;;;;;;4993814;28;20050;-65
2024/03/12 06:13:27;;;;;;;64.53;25.02;;;7.50;99.90;;;;;;4982852;28;20050;-65
2024/03/12 06:15:53;;;;;;;60.67;23.95;;;7.50;99.90;;;;;;4990021;28;20045;-65
2024/03/12 06:18:19;;;;;;;61.35;24.23;;;7.50;99.90;;;;;;4983109;28;20385;-65
2024/03/12 06:20:49;;;;;;;53.78;23.58;;;7.60;99.90;;;;;;4983566;28;20048;-65
2024/03/12 06:23:15;;;;;;;59.38;23.88;;;7.50;99.90;;;;;;4998860;28;20169;-65
2024/03/12 06:25:42;;;;;;;61.60;24.65;;;7.50;99.90;;;;;;4990061;28;20053;-65
2024/03/12 06:28:08;;;;;;;63.63;24.45;;;7.50;99.90;;;;;;5001156;28;20065;-65
2024/03/12 06:30:35;;;;;;;54.47;24.35;;;7.50;99.90;;;;;;4998428;28;20045;-65
2024/03/12 06:33:04;;;;;;;60.65;24.08;;;7.60;99.90;;;;;;4993941;28;20038;-65
2024/03/12 06:35:30;;;;;;;62.37;23.00;;;7.60;99.90;;;;;;4986130;28;20528;-65
2024/03/12 06:37:58;;;;;;;62.20;24.20;;;7.50;99.90;;;;;;4979920;28;20184;-65
2024/03/12 06:40:25;;;;;;;59.08;23.50;;;7.60;99.90;;;;;;4988142;28;20041;-65
2024/03/12 06:42:55;;;;;;;60.13;24.60;;;7.60;99.90;;;;;;4990385;28;20053;-65
2024/03/12 06:45:21;;;;;;;64.38;24.02;;;7.60;99.90;;;;;;5001570;28;20060;-65
2024/03/12 06:47:49;;;;;;;51.05;22.45;;;7.60;99.90;;;;;;4996740;28;20492;-65
2024/03/12 06:50:15;;;;;;;61.28;25.58;;;7.60;99.90;;;;;;4990128;28;20065;-65
2024/03/12 06:52:47;;;;;;;57.33;23.38;;;7.60;99.90;;;;;;4999152;28;20058;-65
2024/03/12 06:55:15;;;;;;;61.00;25.52;;;7.60;99.90;;;;;;4986862;28;20069;-65
2024/03/12 06:57:48;;;;;;;57.28;24.63;;;7.60;99.90;;;;;;4996578;28;20073;-65
2024/03/12 07:00:31;;;;;;;60.95;24.83;;;7.60;99.90;;;;;;4989419;28;20560;-65
2024/03/12 07:02:58;;;;;;;54.85;22.77;;;7.60;99.90;;;;;;5002067;28;20397;-65
2024/03/12 07:05:29;;;;;;;58.63;24.05;;;7.60;99.90;;;;;;4986017;28;20536;-65
2024/03/12 07:07:55;;;;;;;;;;;7.60;99.90;;;;;;4994594;28;20062;-65
2024/03/12 07:10:22;;;;;;;50.85;23.80;;;7.70;99.90;;;;;;4998766;28;19928;-65
2024/03/12 07:12:48;;;;;;;64.38;24.58;;;7.70;99.90;;;;;;4998319;28;20061;-65
2024/03/12 07:15:16;;;;;;;59.58;24.33;;;7.70;99.90;;;;;;4994825;28;20137;-65
2024/03/12 07:17:42;;;;;;;49.28;22.80;;;7.70;99.90;;;;;;4982683;28;20080;-65
2024/03/12 07:20:11;;;;;;;51.83;23.23;;;7.70;99.90;;;;;;4989175;28;20046;-65
2024/03/12 07:22:42;;;;;;;53.90;23.23;;;7.80;99.90;;;;;;4989212;28;20057;-65
2024/03/12 07:25:12;;;;;;;60.17;23.83;;;7.80;99.90;;;;;;5000003;28;20053;-65
2024/03/12 07:27:39;;;;;;;62.17;25.52;;;7.90;99.90;;;;;;4981062;28;20050;-65
2024/03/12 07:30:13;;;;;;;63.97;23.80;;;7.90;99.90;;;;;;4987011;28;20054;-65
2024/03/12 07:32:39;;;;;;;56.95;25.17;;;8.00;99.90;;;;;;5003798;28;20477;-64
2024/03/12 07:35:05;;;;;;;56.50;25.40;;;8.00;99.90;;;;;;4994326;28;20042;-65
2024/03/12 07:37:39;;;;;;;61.15;26.33;;;8.00;99.90;;;;;;5000351;28;20037;-65
2024/03/12 07:40:09;;;;;;;59.55;26.65;;;8.10;99.90;;;;;;4977120;28;20153;-65
2024/03/12 07:42:38;;;;;;;62.58;27.13;;;8.10;99.90;;;;;;4980424;28;20468;-65
2024/03/12 07:45:05;;;;;;;57.38;26.33;;;8.10;99.90;;;;;;4998326;28;20523;-65
2024/03/12 07:47:32;;;;;;;56.63;27.20;;;8.10;99.90;;;;;;4999937;28;20446;-65
2024/03/12 07:49:57;;;;;;;57.28;25.08;;;8.10;99.90;;;;;;4983376;28;20050;-64
2024/03/12 07:52:24;;;;;;;50.03;25.55;;;8.10;99.90;;;;;;4995170;28;20404;-65
2024/03/12 07:54:50;;;;;;;52.17;25.42;;;8.10;99.90;;;;;;4997409;28;20618;-65
2024/03/12 07:57:18;;;;;;;50.90;24.50;;;8.10;99.90;;;;;;5000401;28;20053;-65
2024/03/12 07:59:44;;;;;;;58.92;23.60;;;8.10;99.90;;;;;;4999771;28;20057;-65
2024/03/12 08:02:15;;;;;;;45.92;21.60;;;8.10;99.90;;;;;;5002450;28;20041;-65
2024/03/12 08:04:44;;;;;;;49.45;23.08;;;8.00;99.90;;;;;;4985722;28;20085;-64
2024/03/12 08:07:11;;;;;;;47.38;22.63;;;8.00;99.90;;;;;;4993390;28;20048;-65
2024/03/12 08:09:38;;;;;;;41.42;20.02;;;8.00;99.90;;;;;;5002473;28;20049;-65
2024/03/12 08:12:04;;;;;;;43.97;21.63;;;7.90;99.90;;;;;;5000239;28;20397;-65
2024/03/12 08:14:34;;;;;;;44.45;22.42;;;8.00;99.90;;;;;;5002703;28;20069;-65
2024/03/12 08:17:00;;;;;;;41.83;22.00;;;7.90;99.90;;;;;;5002651;28;20566;-65
2024/03/12 08:19:26;;;;;;;40.63;21.52;;;8.00;99.90;;;;;;5004116;28;20042;-65
2024/03/12 08:21:52;;;;;;;33.40;16.95;;;8.00;99.90;;;;;;4983511;28;20483;-65
2024/03/12 08:24:18;;;;;;;30.88;17.52;;;8.00;99.90;;;;;;5003403;28;20554;-65
2024/03/12 08:26:44;;;;;;;41.65;21.45;;;8.00;99.90;;;;;;4999748;28;20038;-65
2024/03/12 08:29:11;;;;;;;44.67;21.92;;;8.00;99.90;;;;;;5003346;28;20046;-65
2024/03/12 08:31:38;;;;;;;44.58;21.25;;;8.00;99.90;;;;;;4995249;28;20132;-65
2024/03/12 08:34:15;;;;;;;39.03;18.45;;;8.00;99.90;;;;;;4981417;28;20046;-65
2024/03/12 08:36:47;;;;;;;44.53;22.95;;;8.00;99.90;;;;;;5002747;28;20053;-65
2024/03/12 08:39:14;;;;;;;44.47;21.35;;;8.00;99.90;;;;;;5001938;28;20431;-65
2024/03/12 08:41:40;;;;;;;39.83;19.02;;;8.10;99.90;;;;;;4982694;28;20504;-65
2024/03/12 08:44:07;;;;;;;46.97;22.02;;;8.10;99.90;;;;;;5000537;28;20062;-65
2024/03/12 08:46:34;;;;;;;43.17;22.13;;;8.10;99.90;;;;;;4984343;28;20048;-65
2024/03/12 08:49:00;;;;;;;42.13;20.38;;;8.00;99.90;;;;;;4965286;28;20053;-65
2024/03/12 08:51:33;;;;;;;40.45;21.30;;;8.10;99.90;;;;;;5000853;28;20041;-65
2024/03/12 08:54:01;;;;;;;53.22;22.40;;;8.10;99.90;;;;;;5000763;28;20149;-65
2024/03/12 08:56:29;;;;;;;45.03;23.05;;;8.20;99.90;;;;;;4983568;28;20050;-65
2024/03/12 08:58:58;;;;;;;45.60;24.65;;;8.10;99.90;;;;;;5001088;28;20056;-65
2024/03/12 09:01:24;;;;;;;42.22;22.05;;;8.20;99.90;;;;;;5000643;28;20579;-64
2024/03/12 09:03:50;;;;;;;55.15;24.70;;;8.20;99.90;;;;;;5002322;28;20435;-65
2024/03/12 09:06:19;;;;;;;48.28;21.98;;;8.20;99.90;;;;;;5000622;28;20058;-65
2024/03/12 09:08:45;;;;;;;51.20;22.75;;;8.20;99.90;;;;;;4984784;28;20513;-65
2024/03/12 09:11:16;;;;;;;39.72;22.17;;;8.20;99.90;;;;;;4978807;28;20049;-65
2024/03/12 09:13:43;;;;;;;43.13;21.75;;;8.20;99.90;;;;;;4989797;28;20060;-65
2024/03/12 09:16:12;;;;;;;42.10;21.52;;;8.20;99.90;;;;;;4997126;28;20052;-65
2024/03/12 09:18:43;;;;;;;50.22;23.88;;;8.20;99.90;;;;;;4984429;28;20053;-65
2024/03/12 09:21:10;;;;;;;50.97;24.08;;;8.20;99.90;;;;;;4986439;28;20034;-65
2024/03/12 09:23:36;;;;;;;56.10;25.30;;;8.30;99.90;;;;;;4979569;28;20046;-65
2024/03/12 09:26:06;;;;;;;56.28;24.58;;;8.30;99.90;;;;;;4981733;28;20042;-65
2024/03/12 09:28:33;;;;;;;65.28;26.65;;;8.30;99.90;;;;;;4981970;28;20683;-65
2024/03/12 09:30:59;;;;;;;51.40;23.92;;;8.30;99.90;;;;;;4981387;28;20150;-65
2024/03/12 09:33:25;;;;;;;54.80;24.45;;;8.30;99.90;;;;;;4966557;28;20512;-65
2024/03/12 09:35:53;;;;;;;58.35;25.63;;;8.30;99.90;;;;;;4980915;28;20052;-65
2024/03/12 09:38:19;;;;;;;63.97;25.05;;;8.30;99.90;;;;;;4996801;28;20076;-65
2024/03/12 09:40:47;;;;;;;56.40;25.70;;;8.30;99.90;;;;;;4979407;28;20135;-65
2024/03/12 09:43:18;;;;;;;52.10;23.80;;;8.30;99.90;;;;;;4996838;28;20479;-65
2024/03/12 09:45:45;;;;;;;;;;;8.30;99.90;;;;;;5001281;28;20381;-65
2024/03/12 09:48:14;;;;;;;51.63;23.98;;;8.30;99.90;;;;;;4998396;28;19944;-65
2024/03/12 09:50:43;;;;;;;59.25;25.02;;;8.30;99.90;;;;;;5000382;28;20052;-65
2024/03/12 09:53:17;;;;;;;57.45;26.40;;;8.30;99.90;;;;;;4980661;28;20121;-65
2024/03/12 09:55:44;;;;;;;69.15;27.10;;;8.30;99.90;;;;;;5003663;28;20045;-65
2024/03/12 09:58:10;;;;;;;59.20;25.88;;;8.30;99.90;;;;;;5004114;28;20385;-65
2024/03/12 10:00:37;;;;;;;60.47;26.83;;;8.30;99.90;;;;;;5001198;28;20077;-65
2024/03/12 10:03:04;;;;;;;66.60;24.58;;;8.40;99.90;;;;;;4986074;28;20128;-65
2024/03/12 10:05:31;;;;;;;71.72;27.65;;;8.40;99.90;;;;;;5003300;28;20645;-65
2024/03/12 10:08:08;;;;;;;68.93;27.67;;;8.40;99.90;;;;;;5005034;28;20451;-66
2024/03/12 10:10:38;;;;;;;60.85;26.10;;;8.50;99.90;;;;;;5002218;28;20578;-65
2024/03/12 10:13:05;;;;;;;71.07;27.40;;;8.50;99.90;;;;;;4986267;28;20100;-65
2024/03/12 10:15:31;;;;;;;58.58;24.33;;;8.50;99.90;;;;;;4970302;28;20173;-66
2024/03/12 10:18:09;;;;;;;68.32;26.27;;;8.60;99.90;;;;;;5001432;28;20034;-65
2024/03/12 10:20:47;;;;;;;73.80;27.80;;;8.50;99.90;;;;;;5005021;28;20049;-65
2024/03/12 10:23:15;;;;;;;66.07;26.58;;;8.60;99.90;;;;;;4968361;28;20050;-65
2024/03/12 10:25:42;;;;;;;71.30;25.48;;;8.60;99.90;;;;;;5004822;28;20084;-65
2024/03/12 10:28:14;;;;;;;67.43;26.38;;;8.60;99.90;;;;;;5003139;28;20058;-65
2024/03/12 10:30:42;;;;;;;66.57;25.55;;;8.60;99.90;;;;;;5005109;28;20384;-65
2024/03/12 10:33:20;;;;;;;66.05;24.15;;;8.60;99.90;;;;;;5002820;28;20111;-65
2024/03/12 10:35:50;;;;;;;61.03;23.73;;;8.60;99.90;;;;;;5004677;28;20500;-65
2024/03/12 10:38:27;;;;;;;61.65;22.92;;;8.70;99.90;;;;;;5005209;28;20504;-65
2024/03/12 10:40:56;;;;;;;62.47;21.35;;;8.70;99.90;;;;;;5004378;28;20448;-65
2024/03/12 10:43:24;;;;;;;55.72;21.45;;;8.70;99.90;;;;;;5004627;28;20052;-65
2024/03/12 10:45:50;;;;;;;49.28;19.25;;;8.70;99.90;;;;;;4986637;28;20049;-65
2024/03/12 10:48:18;;;;;;;60.20;22.73;;;8.60;99.90;;;;;;4985327;28;20159;-65
2024/03/12 10:50:45;;;;;;;60.72;20.73;;;8.70;99.90;;;;;;4997265;28;20107;-64
2024/03/12 10:53:11;;;;;;;55.92;20.55;;;8.70;99.90;;;;;;4979534;28;20627;-65
2024/03/12 10:55:38;;;;;;;59.80;20.58;;;8.70;99.90;;;;;;5003914;28;20045;-65
2024/03/12 10:58:08;;;;;;;56.33;19.13;;;8.60;99.90;;;;;;5001483;28;20107;-65
2024/03/12 11:00:39;;;;;;;52.00;18.83;;;8.60;99.90;;;;;;4986858;28;20163;-65
2024/03/12 11:03:10;;;;;;;54.05;21.55;;;8.70;99.90;;;;;;5003543;28;20121;-65
2024/03/12 11:05:38;;;;;;;50.30;20.05;;;8.70;99.90;;;;;;5003870;28;20100;-64
2024/03/12 11:08:07;;;;;;;44.92;18.20;;;8.80;99.90;;;;;;5003920;28;20112;-65
2024/03/12 11:10:33;;;;;;;46.15;17.30;;;8.90;99.90;;;;;;5003264;28;20056;-65
2024/03/12 11:13:05;;;;;;;43.92;17.90;;;8.90;99.90;;;;;;4983268;28;20054;-65
2024/03/12 11:15:33;;;;;;;40.40;16.55;;;9.00;99.90;;;;;;4991291;28;20555;-65
2024/03/12 11:17:59;;;;;;;35.72;17.25;;;9.00;99.90;;;;;;4987294;28;20426;-65
2024/03/12 11:20:25;;;;;;;38.92;16.13;;;9.00;99.90;;;;;;4983664;28;20047;-64
2024/03/12 11:23:01;;;;;;;34.05;15.57;;;9.20;99.90;;;;;;4983380;28;20054;-65
2024/03/12 11:25:49;;;;;;;31.70;13.93;;;9.20;99.90;;;;;;4984721;28;20103;-65
2024/03/12 11:28:26;;;;;;;36.90;13.75;;;9.20;99.90;;;;;;4980858;28;20156;-65
2024/03/12 11:30:55;;;;;;;30.75;13.02;;;9.30;99.90;;;;;;4971597;28;20053;-64
2024/03/12 11:33:44;;;;;;;30.73;13.70;;;9.30;99.90;;;;;;4995171;28;20065;-65
2024/03/12 11:36:29;;;;;;;30.03;13.40;;;9.50;99.90;;;;;;4981857;28;20082;-65
2024/03/12 11:39:11;;;;;;;30.90;13.57;;;9.60;99.90;;;;;;5003104;28;20080;-65
2024/03/12 11:42:08;;;;;;;30.02;12.80;;;9.60;99.90;;;;;;4997081;28;20485;-65
2024/03/12 11:44:49;;;;;;;28.58;11.80;;;9.70;99.90;;;;;;5000531;28;20518;-65
2024/03/12 11:47:31;;;;;;;24.73;12.57;;;9.70;99.90;;;;;;4992419;28;20049;-65
2024/03/12 11:49:57;;;;;;;23.73;10.73;;;9.60;99.90;;;;;;4983371;28;20149;-65
2024/03/12 11:52:27;;;;;;;18.33;9.60;;;9.60;99.90;;;;;;5000889;28;20066;-65
2024/03/12 11:54:53;;;;;;;15.93;9.97;;;9.60;99.90;;;;;;5002654;28;20128;-64
2024/03/12 11:57:29;;;;;;;16.23;8.77;;;9.50;99.90;;;;;;5002070;28;20513;-64
2024/03/12 11:59:56;;;;;;;18.40;8.80;;;9.50;99.90;;;;;;5003139;28;20050;-65
2024/03/12 12:02:23;;;;;;;14.23;8.00;;;9.50;99.90;;;;;;4983914;28;20053;-65
2024/03/12 12:04:53;;;;;;;17.63;9.02;;;9.50;99.90;;;;;;5001392;28;20052;-64
2024/03/12 12:07:24;;;;;;;17.92;7.82;;;9.40;99.90;;;;;;4983377;28;20149;-65
2024/03/12 12:09:51;;;;;;;16.10;8.07;;;9.30;99.90;;;;;;4985634;28;20131;-65
2024/03/12 12:12:18;;;;;;;10.40;7.72;;;9.30;99.90;;;;;;5002666;28;20092;-64
2024/03/12 12:14:47;;;;;;;14.93;8.23;;;9.30;99.90;;;;;;5001553;28;20615;-65
2024/03/12 12:17:21;;;;;;;13.35;7.75;;;9.20;99.90;;;;;;4968896;28;20488;-65
2024/03/12 12:20:21;;;;;;;14.43;7.80;;;9.20;99.90;;;;;;4980593;28;20054;-65
2024/03/12 12:22:49;;;;;;;13.80;7.72;;;9.20;99.90;;;;;;4981170;28;20050;-65
2024/03/12 12:25:18;;;;;;;11.95;6.90;;;9.10;99.90;;;;;;5001590;28;20061;-65
2024/03/12 12:27:44;;;;;;;6.78;3.97;;;9.00;99.90;;;;;;4996788;28;20052;-65
2024/03/12 12:30:11;;;;;;;9.18;5.75;;;9.00;99.90;;;;;;5001592;28;20057;-65
2024/03/12 12:32:40;;;;;;;8.82;5.72;;;9.00;99.90;;;;;;4979721;28;20043;-65
2024/03/12 12:35:13;;;;;;;10.80;6.90;;;9.00;99.90;;;;;;4986823;28;20500;-65
2024/03/12 12:37:46;;;;;;;10.32;5.95;;;9.00;99.90;;;;;;5000890;28;20107;-65
2024/03/12 12:40:22;;;;;;;9.98;5.65;;;9.00;99.90;;;;;;4977979;28;20050;-65
2024/03/12 12:42:51;;;;;;;8.18;5.63;;;9.00;99.90;;;;;;5003298;28;20054;-65
2024/03/12 12:45:17;;;;;;;4.03;2.70;;;8.90;99.90;;;;;;5001283;28;20068;-65
2024/03/12 12:47:49;;;;;;;8.75;5.22;;;8.90;99.90;;;;;;5003185;28;20522;-65
2024/03/12 12:50:27;;;;;;;12.20;6.25;;;8.90;99.90;;;;;;4966752;28;20104;-65
2024/03/12 12:53:01;;;;;;;11.40;5.95;;;8.80;99.90;;;;;;5002912;28;20096;-65